South Congaree, SC

2:56 PM EDT on September 21, 2014 (GMT -0400)
J and M Weather Station | Change Station
CLOSE
Current Station
Personal Weather Station
Location: Lexington, SC
Elevation: 315 ft
Nearby Weather Stations

Elev 315 ft 33.99 °N, 81.14 °W | Updated 1 second ago

Clear
Clear
90.1 °F
Feels Like 96 °F
N
2.2
Wind Variable Wind from South
Gusts 6.0 mph

Today
High -- | Low -- °F
--% Chance of Precip.
Yesterday
High -- | Low -- °F
Precip. -- in
7:11 AM 7:22 PM
Waning Crescent, 6% visible
Pressure 29.90 in
Visibility 10.0 miles
Clouds Clear
Heat Index 96 °F
Dew Point 70 °F
Humidity 52%
Rainfall 0.00 in
Snow Depth Not available.
UV 9 out of 12
Pollen 8.00 out of 12
Ozone Good
Flu Activity Not available.
METAR KCAE 211756Z 29009KT 10SM CLR 31/16 A2991 RMK AO2 SLP123 T03060156 10311 20167 58027

More Conditions Fewer Conditions

Pressure 29.90 in
Visibility 10.0 miles
Clouds Clear
Heat Index 96 °F
Dew Point 70 °F
Humidity 52%
Rainfall 0.00 in
Snow Depth Not available.
UV 9 out of 12
Pollen 8.00 out of 12
Ozone Good
Flu Activity Not available.
METAR KCAE 211756Z 29009KT 10SM CLR 31/16 A2991 RMK AO2 SLP123 T03060156 10311 20167 58027

More Conditions Fewer Conditions

10-Day Weather Forecast

Almanac

Astronomy

Sep. 21, 2014 Rise Set
Actual Time 7:11 AM EDT 7:22 PM EDT
Civil Twilight 6:46 AM EDT 7:47 PM EDT
Nautical Twilight 6:17 AM EDT 8:16 PM EDT
Astronomical Twilight 5:48 AM EDT 8:46 PM EDT
Moon 4:49 AM EDT 5:53 PM EDT
Length of Visible Light 13h 00m
Length of Day
12h 10m
Tomorrow will be 2m 6s shorter.
Waning Crescent, 6% of the Moon is Illuminated
Today
Waning Crescent
Sep 24
New
Oct 1
First Quarter
Oct 8
Full
Oct 15
Last Quarter

Today's Extremes

State Highs State Lows

Community

WunderPhotos

Upload Photos

1,755,211 photos uploaded!

WunderBlogs® & News

Nearby

Air Quality

  Air Quality AQ Index Pollutant
Yesterday Good
OZONE
Current Good
OZONE
Sunday Good
OZONE

Snow Depth

Station Depth Elevation
No new snow has been reported.

Earthquake Activity

City Distance Mag. Time & Date
New Ellenton, South Carolina 51 miles 2.6 4:38 PM EDT
2014-09-19
Minimum magnitude displayed is 2.5.

Coastal Water Temperatures

Place Temperature
No Stations Reporting

Nearby Weather Stations